createdAt,value
2023-05-06T00:00:06.478Z,17.50
2023-05-06T00:02:41.879Z,17.50
2023-05-06T00:05:10.880Z,17.50
2023-05-06T00:07:39.729Z,17.50
2023-05-06T00:10:08.625Z,17.50
2023-05-06T00:12:37.014Z,17.50
2023-05-06T00:15:06.545Z,17.50
2023-05-06T00:17:34.935Z,17.50
2023-05-06T00:20:05.147Z,17.50
2023-05-06T00:22:33.659Z,17.40
2023-05-06T00:25:02.100Z,17.40
2023-05-06T00:27:30.504Z,17.40
2023-05-06T00:29:59.219Z,17.30
2023-05-06T00:32:27.612Z,17.30
2023-05-06T00:34:55.936Z,17.30
2023-05-06T00:37:25.726Z,17.30
2023-05-06T00:39:54.480Z,17.30
2023-05-06T00:42:23.321Z,17.20
2023-05-06T00:44:51.759Z,17.20
2023-05-06T00:47:22.154Z,17.20
2023-05-06T00:49:51.946Z,17.20
2023-05-06T00:52:21.623Z,17.20
2023-05-06T00:54:51.871Z,17.10
2023-05-06T00:57:20.299Z,17.10
2023-05-06T00:59:48.612Z,17.10
2023-05-06T01:02:17.563Z,17.10
2023-05-06T01:04:45.962Z,17.10
2023-05-06T01:07:27.299Z,17.10
2023-05-06T01:10:01.803Z,17.00
2023-05-06T01:12:35.163Z,17.00
2023-05-06T01:15:10.034Z,17.00
2023-05-06T01:17:45.993Z,17.00
2023-05-06T01:20:15.436Z,16.90
2023-05-06T01:22:43.847Z,16.90
2023-05-06T01:25:20.888Z,16.90
2023-05-06T01:27:49.831Z,16.90
2023-05-06T01:30:20.602Z,16.90
2023-05-06T01:33:01.962Z,16.90
2023-05-06T01:35:37.446Z,16.90
2023-05-06T01:38:16.999Z,16.90
2023-05-06T01:40:54.195Z,16.90
2023-05-06T01:43:24.798Z,16.80
2023-05-06T01:45:55.492Z,16.80
2023-05-06T01:48:25.894Z,16.80
2023-05-06T01:50:54.483Z,16.80
2023-05-06T01:53:23.144Z,16.80
2023-05-06T01:55:52.932Z,16.80
2023-05-06T01:58:21.447Z,16.80
2023-05-06T02:00:49.801Z,16.80
2023-05-06T02:03:18.237Z,16.80
2023-05-06T02:05:46.928Z,16.80
2023-05-06T02:08:15.447Z,16.80
2023-05-06T02:10:46.064Z,16.80
2023-05-06T02:13:16.087Z,16.80
2023-05-06T02:15:44.499Z,16.80
2023-05-06T02:18:17.181Z,16.80
2023-05-06T02:20:45.510Z,16.80
2023-05-06T02:23:17.659Z,16.80
2023-05-06T02:25:47.656Z,16.80
2023-05-06T02:28:17.330Z,16.80
2023-05-06T02:30:45.828Z,16.80
2023-05-06T02:33:14.286Z,16.80
2023-05-06T02:35:42.798Z,16.80
2023-05-06T02:38:11.184Z,16.80
2023-05-06T02:40:39.553Z,16.80
2023-05-06T02:43:08.165Z,16.70
2023-05-06T02:45:37.983Z,16.70
2023-05-06T02:48:06.904Z,16.80
2023-05-06T02:50:36.098Z,16.70
2023-05-06T02:53:04.632Z,16.70
2023-05-06T02:55:33.122Z,16.70
2023-05-06T02:58:01.580Z,16.70
2023-05-06T03:00:29.932Z,16.70
2023-05-06T03:02:59.800Z,16.60
2023-05-06T03:05:28.465Z,16.70
2023-05-06T03:07:57.704Z,16.70
2023-05-06T03:10:26.312Z,16.60
2023-05-06T03:12:56.761Z,16.60
2023-05-06T03:15:25.557Z,16.60
2023-05-06T03:17:55.380Z,16.60
2023-05-06T03:20:28.797Z,16.60
2023-05-06T03:22:58.680Z,16.60
2023-05-06T03:25:28.039Z,16.60
2023-05-06T03:27:57.150Z,16.60
2023-05-06T03:30:25.538Z,16.50
2023-05-06T03:32:57.249Z,16.50
2023-05-06T03:35:32.841Z,16.50
2023-05-06T03:38:02.716Z,16.50
2023-05-06T03:40:39.560Z,16.50
2023-05-06T03:43:08.601Z,16.40
2023-05-06T03:45:38.006Z,16.40
2023-05-06T03:48:07.541Z,16.40
2023-05-06T03:50:40.968Z,16.40
2023-05-06T03:53:09.580Z,16.40
2023-05-06T03:55:41.000Z,16.40
2023-05-06T03:58:10.468Z,16.40
2023-05-06T04:00:39.035Z,16.40
2023-05-06T04:03:08.419Z,16.40
2023-05-06T04:05:49.824Z,16.40
2023-05-06T04:08:20.808Z,16.30
2023-05-06T04:10:49.109Z,16.30
2023-05-06T04:13:26.132Z,16.30
2023-05-06T04:15:55.189Z,16.30
2023-05-06T04:18:27.960Z,16.30
2023-05-06T04:21:03.206Z,16.30
2023-05-06T04:23:34.038Z,16.20
2023-05-06T04:26:03.740Z,16.20
2023-05-06T04:28:34.347Z,16.20
2023-05-06T04:31:03.128Z,16.20
2023-05-06T04:33:42.078Z,16.20
2023-05-06T04:36:17.688Z,16.20
2023-05-06T04:38:57.101Z,16.20
2023-05-06T04:41:26.137Z,16.10
2023-05-06T04:43:56.134Z,16.10
2023-05-06T04:46:26.166Z,16.10
2023-05-06T04:48:56.926Z,16.10
2023-05-06T04:51:27.106Z,16.10
2023-05-06T04:53:56.078Z,16.10
2023-05-06T04:56:24.647Z,16.10
2023-05-06T04:58:52.989Z,16.10
2023-05-06T05:01:21.327Z,16.10
2023-05-06T05:03:49.848Z,16.10
2023-05-06T05:06:21.195Z,16.10
2023-05-06T05:08:51.577Z,16.10
2023-05-06T05:11:20.209Z,16.10
2023-05-06T05:13:48.592Z,16.10
2023-05-06T05:16:17.431Z,16.10
2023-05-06T05:18:46.773Z,16.10
2023-05-06T05:21:21.146Z,16.10
2023-05-06T05:23:51.537Z,16.10
2023-05-06T05:26:20.467Z,16.10
2023-05-06T05:28:52.367Z,16.10
2023-05-06T05:31:20.750Z,16.10
2023-05-06T05:33:50.125Z,16.10
2023-05-06T05:36:21.679Z,16.10
2023-05-06T05:38:54.742Z,16.10
2023-05-06T05:41:27.003Z,16.10
2023-05-06T05:43:56.536Z,16.40
2023-05-06T05:46:25.784Z,16.10
2023-05-06T05:48:54.239Z,16.20
2023-05-06T05:51:24.186Z,16.20
2023-05-06T05:53:54.847Z,16.20
2023-05-06T05:56:25.361Z,16.20
2023-05-06T05:58:54.204Z,16.20
2023-05-06T06:01:22.533Z,16.30
2023-05-06T06:03:51.617Z,16.20
2023-05-06T06:06:20.192Z,16.30
2023-05-06T06:08:49.258Z,16.30
2023-05-06T06:11:19.671Z,16.30
2023-05-06T06:13:47.993Z,16.30
2023-05-06T06:16:16.904Z,16.30
2023-05-06T06:18:45.392Z,16.30
2023-05-06T06:21:13.893Z,16.30
2023-05-06T06:23:42.596Z,16.30
2023-05-06T06:26:12.422Z,16.30
2023-05-06T06:28:44.670Z,16.40
2023-05-06T06:31:13.490Z,16.40
2023-05-06T06:33:41.771Z,16.40
2023-05-06T06:36:10.737Z,16.40
2023-05-06T06:38:40.153Z,16.40
2023-05-06T06:41:09.097Z,16.40
2023-05-06T06:43:37.390Z,16.50
2023-05-06T06:46:19.378Z,16.50
2023-05-06T06:48:48.094Z,16.50
2023-05-06T06:51:16.355Z,16.50
2023-05-06T06:53:44.713Z,16.50
2023-05-06T06:56:13.953Z,16.50
2023-05-06T06:58:42.654Z,16.50
2023-05-06T07:01:11.714Z,16.60
2023-05-06T07:03:41.546Z,16.60
2023-05-06T07:06:10.025Z,16.60
2023-05-06T07:08:38.521Z,16.60
2023-05-06T07:11:07.051Z,16.60
2023-05-06T07:13:35.426Z,16.60
2023-05-06T07:16:03.793Z,16.60
2023-05-06T07:18:32.157Z,16.60
2023-05-06T07:21:01.989Z,16.70
2023-05-06T07:23:32.065Z,16.70
2023-05-06T07:26:00.721Z,16.70
2023-05-06T07:28:29.033Z,16.70
2023-05-06T07:30:57.476Z,16.70
2023-05-06T07:33:25.820Z,16.70
2023-05-06T07:35:54.595Z,16.70
2023-05-06T07:38:24.630Z,16.80
2023-05-06T07:40:53.066Z,16.80
2023-05-06T07:43:22.628Z,16.80
2023-05-06T07:45:51.024Z,16.80
2023-05-06T07:48:20.344Z,16.80
2023-05-06T07:50:48.689Z,16.80
2023-05-06T07:53:17.095Z,16.80
2023-05-06T07:55:46.878Z,16.80
2023-05-06T07:58:15.271Z,16.80
2023-05-06T08:00:43.595Z,16.90
2023-05-06T08:03:12.077Z,16.90
2023-05-06T08:05:40.545Z,16.90
2023-05-06T08:08:08.815Z,16.90
2023-05-06T08:10:37.162Z,16.90
2023-05-06T08:13:06.925Z,16.90
2023-05-06T08:15:35.263Z,17.00
2023-05-06T08:18:13.846Z,17.00
2023-05-06T08:20:49.788Z,17.00
2023-05-06T08:23:18.143Z,17.00
2023-05-06T08:25:47.306Z,17.00
2023-05-06T08:28:17.068Z,17.00
2023-05-06T08:30:47.713Z,17.00
2023-05-06T08:33:16.234Z,17.00
2023-05-06T08:35:44.935Z,17.10
2023-05-06T08:38:13.380Z,17.10
2023-05-06T08:40:44.567Z,17.10
2023-05-06T08:43:22.040Z,17.10
2023-05-06T08:45:51.812Z,17.10
2023-05-06T08:48:23.159Z,17.20
2023-05-06T08:50:53.414Z,17.20
2023-05-06T08:53:21.949Z,17.20
2023-05-06T08:55:52.856Z,17.20
2023-05-06T08:58:23.952Z,17.20
2023-05-06T09:00:52.597Z,17.20
2023-05-06T09:03:21.195Z,17.20
2023-05-06T09:05:49.714Z,17.20
2023-05-06T09:08:17.996Z,17.30
2023-05-06T09:10:47.370Z,17.30
2023-05-06T09:13:17.066Z,17.30
2023-05-06T09:15:48.711Z,17.30
2023-05-06T09:18:17.650Z,17.30
2023-05-06T09:20:47.148Z,17.30
2023-05-06T09:23:17.931Z,17.30
2023-05-06T09:25:49.895Z,17.40
2023-05-06T09:28:18.483Z,17.40
2023-05-06T09:30:48.609Z,17.40
2023-05-06T09:33:17.667Z,17.40
2023-05-06T09:35:46.146Z,17.40
2023-05-06T09:38:14.509Z,17.50
2023-05-06T09:40:42.848Z,17.50
2023-05-06T09:43:12.901Z,17.50
2023-05-06T09:45:41.933Z,17.50
2023-05-06T09:48:11.978Z,17.60
2023-05-06T09:50:41.307Z,17.60
2023-05-06T09:53:12.182Z,17.60
2023-05-06T09:55:42.312Z,17.60
2023-05-06T09:58:11.175Z,17.70
2023-05-06T10:00:40.808Z,17.70
2023-05-06T10:03:09.870Z,17.60
2023-05-06T10:05:40.401Z,17.70
2023-05-06T10:08:10.104Z,17.70
2023-05-06T10:10:41.448Z,17.70
2023-05-06T10:13:09.999Z,17.70
2023-05-06T10:15:39.743Z,17.70
2023-05-06T10:18:10.508Z,17.80
2023-05-06T10:20:42.437Z,17.80
2023-05-06T10:23:20.577Z,17.80
2023-05-06T10:25:52.786Z,17.80
2023-05-06T10:28:26.579Z,17.80
2023-05-06T10:31:00.309Z,17.90
2023-05-06T10:33:29.528Z,17.90
2023-05-06T10:36:14.768Z,17.90
2023-05-06T10:38:44.840Z,17.90
2023-05-06T10:41:14.827Z,17.90
2023-05-06T10:43:45.371Z,17.90
2023-05-06T10:46:17.256Z,18.00
2023-05-06T10:49:20.700Z,18.00
2023-05-06T10:52:12.086Z,18.00
2023-05-06T10:54:51.285Z,18.10
2023-05-06T10:57:20.912Z,18.10
2023-05-06T10:59:50.459Z,18.10
2023-05-06T11:02:20.972Z,18.10
2023-05-06T11:04:53.338Z,18.10
2023-05-06T11:07:26.258Z,18.20
2023-05-06T11:09:59.029Z,18.20
2023-05-06T11:12:46.797Z,18.30
2023-05-06T11:15:26.201Z,18.30
2023-05-06T11:17:56.014Z,18.30
2023-05-06T11:20:26.635Z,18.30
2023-05-06T11:22:56.402Z,18.40
2023-05-06T11:25:41.163Z,18.40
2023-05-06T11:28:11.425Z,18.50
2023-05-06T11:30:42.761Z,18.50
2023-05-06T11:33:18.616Z,18.50
2023-05-06T11:35:47.167Z,18.60
2023-05-06T11:38:16.922Z,18.60
2023-05-06T11:40:45.392Z,18.60
2023-05-06T11:43:14.269Z,18.60
2023-05-06T11:45:44.068Z,18.70
2023-05-06T11:48:15.901Z,18.70
2023-05-06T11:50:47.754Z,18.70
2023-05-06T11:53:20.100Z,19.00
2023-05-06T11:55:49.761Z,18.80
2023-05-06T11:58:19.878Z,18.80
2023-05-06T12:00:51.459Z,18.80
2023-05-06T12:03:20.506Z,18.90
2023-05-06T12:05:49.839Z,18.90
2023-05-06T12:08:27.362Z,18.90
2023-05-06T12:10:59.432Z,19.00
2023-05-06T12:13:28.820Z,19.00
2023-05-06T12:15:59.209Z,19.00
2023-05-06T12:18:28.530Z,19.10
2023-05-06T12:20:57.344Z,19.10
2023-05-06T12:23:27.146Z,19.10
2023-05-06T12:26:03.973Z,19.20
2023-05-06T12:28:33.608Z,19.20
2023-05-06T12:31:02.315Z,19.20
2023-05-06T12:33:45.358Z,19.30
2023-05-06T12:36:14.095Z,19.30
2023-05-06T12:38:53.248Z,19.30
2023-05-06T12:41:21.935Z,19.40
2023-05-06T12:43:50.808Z,19.40
2023-05-06T12:46:19.552Z,19.40
2023-05-06T12:48:58.764Z,19.50
2023-05-06T12:51:27.884Z,19.50
2023-05-06T12:53:58.554Z,19.50
2023-05-06T12:56:26.961Z,19.50
2023-05-06T12:58:59.891Z,19.50
2023-05-06T13:01:28.277Z,19.60
2023-05-06T13:03:58.137Z,19.60
2023-05-06T13:06:26.551Z,19.60
2023-05-06T13:08:55.104Z,19.60
2023-05-06T13:11:25.842Z,19.70
2023-05-06T13:13:54.198Z,19.70
2023-05-06T13:16:22.790Z,19.70
2023-05-06T13:18:51.221Z,19.80
2023-05-06T13:21:19.563Z,19.80
2023-05-06T13:23:48.388Z,19.80
2023-05-06T13:26:17.816Z,19.80
2023-05-06T13:28:48.463Z,19.90
2023-05-06T13:31:16.878Z,19.90
2023-05-06T13:33:45.161Z,19.90
2023-05-06T13:36:13.510Z,19.90
2023-05-06T13:38:41.940Z,19.90
2023-05-06T13:41:10.237Z,19.90
2023-05-06T13:43:38.968Z,20.00
2023-05-06T13:46:09.669Z,20.00
2023-05-06T13:48:38.384Z,20.00
2023-05-06T13:51:07.028Z,20.00
2023-05-06T13:53:35.720Z,20.00
2023-05-06T13:56:04.667Z,20.00
2023-05-06T13:58:33.171Z,20.00
2023-05-06T14:01:01.610Z,20.00
2023-05-06T14:03:31.436Z,20.00
2023-05-06T14:05:59.774Z,20.00
2023-05-06T14:08:28.059Z,20.00
2023-05-06T14:10:56.342Z,20.00
2023-05-06T14:13:24.887Z,20.00
2023-05-06T14:15:53.361Z,19.90
2023-05-06T14:18:21.693Z,19.90
2023-05-06T14:20:51.393Z,19.90
2023-05-06T14:23:19.810Z,19.90
2023-05-06T14:25:48.115Z,19.90
2023-05-06T14:28:16.657Z,19.90
2023-05-06T14:30:47.525Z,19.90
2023-05-06T14:33:15.840Z,19.90
2023-05-06T14:35:46.087Z,19.80
2023-05-06T14:38:15.893Z,19.80
2023-05-06T14:40:44.244Z,19.80
2023-05-06T14:43:12.588Z,19.80
2023-05-06T14:45:40.978Z,19.70
2023-05-06T14:48:09.458Z,19.70
2023-05-06T14:50:37.843Z,19.70
2023-05-06T14:53:06.534Z,19.60
2023-05-06T14:55:37.528Z,19.60
2023-05-06T14:58:05.893Z,19.60
2023-05-06T15:00:34.461Z,19.50
2023-05-06T15:03:02.844Z,19.40
2023-05-06T15:05:31.474Z,19.40
2023-05-06T15:07:59.803Z,19.40
2023-05-06T15:10:28.251Z,19.30
2023-05-06T15:12:58.051Z,19.30
2023-05-06T15:15:26.434Z,19.20
2023-05-06T15:17:54.784Z,19.20
2023-05-06T15:20:23.248Z,19.10
2023-05-06T15:22:51.458Z,19.00
2023-05-06T15:25:33.510Z,19.00
2023-05-06T15:28:04.931Z,18.90
2023-05-06T15:30:33.404Z,18.90
2023-05-06T15:33:02.871Z,18.90
2023-05-06T15:35:32.220Z,18.90
2023-05-06T15:38:00.486Z,18.90
2023-05-06T15:40:29.335Z,18.80
2023-05-06T15:42:57.747Z,18.80
2023-05-06T15:45:27.666Z,18.80
2023-05-06T15:47:56.324Z,18.80
2023-05-06T15:50:33.372Z,18.80
2023-05-06T15:53:02.870Z,18.80
2023-05-06T15:55:35.244Z,18.70
2023-05-06T15:58:09.752Z,18.70
2023-05-06T16:00:39.412Z,18.70
2023-05-06T16:03:11.576Z,18.70
2023-05-06T16:05:40.907Z,18.70
2023-05-06T16:08:09.166Z,18.70
2023-05-06T16:10:37.536Z,18.70
2023-05-06T16:13:05.918Z,18.70
2023-05-06T16:15:35.479Z,18.70
2023-05-06T16:18:05.407Z,18.70
2023-05-06T16:20:34.447Z,18.70
2023-05-06T16:23:02.906Z,18.70
2023-05-06T16:25:31.283Z,18.70
2023-05-06T16:27:59.615Z,18.70
2023-05-06T16:30:27.857Z,18.70
2023-05-06T16:32:56.193Z,18.70
2023-05-06T16:35:26.112Z,18.70
2023-05-06T16:37:54.463Z,18.70
2023-05-06T16:40:24.219Z,18.70
2023-05-06T16:42:52.754Z,18.70
2023-05-06T16:45:21.092Z,18.70
2023-05-06T16:47:49.687Z,18.70
2023-05-06T16:50:18.184Z,18.70
2023-05-06T16:52:48.573Z,18.70
2023-05-06T16:55:17.184Z,18.60
2023-05-06T16:57:45.568Z,18.70
2023-05-06T17:00:16.516Z,18.70
2023-05-06T17:02:45.120Z,18.60
2023-05-06T17:05:13.842Z,18.70
2023-05-06T17:07:42.293Z,18.60
2023-05-06T17:10:13.253Z,18.60
2023-05-06T17:12:42.897Z,18.70
2023-05-06T17:15:12.396Z,18.60
2023-05-06T17:17:41.243Z,18.60
2023-05-06T17:20:11.233Z,18.70
2023-05-06T17:22:40.060Z,18.70
2023-05-06T17:25:09.173Z,18.70
2023-05-06T17:27:39.128Z,18.70
2023-05-06T17:30:09.733Z,18.70
2023-05-06T17:32:38.342Z,18.70
2023-05-06T17:35:07.775Z,18.70
2023-05-06T17:37:36.359Z,18.70
2023-05-06T17:40:06.958Z,18.70
2023-05-06T17:42:36.041Z,18.70
2023-05-06T17:45:06.389Z,18.70
2023-05-06T17:47:36.097Z,18.70
2023-05-06T17:50:04.854Z,18.70
2023-05-06T17:52:33.192Z,18.70
2023-05-06T17:55:11.797Z,18.70
2023-05-06T17:57:50.313Z,18.70
2023-05-06T18:00:20.488Z,18.70
2023-05-06T18:02:49.052Z,18.70
2023-05-06T18:05:18.626Z,18.70
2023-05-06T18:07:47.671Z,18.70
2023-05-06T18:10:16.030Z,18.70
2023-05-06T18:12:45.412Z,18.70
2023-05-06T18:15:13.942Z,18.70
2023-05-06T18:17:43.713Z,18.70
2023-05-06T18:20:13.459Z,18.70
2023-05-06T18:22:43.002Z,18.70
2023-05-06T18:25:11.978Z,18.70
2023-05-06T18:27:40.704Z,18.70
2023-05-06T18:30:09.742Z,18.70
2023-05-06T18:32:38.106Z,18.70
2023-05-06T18:35:08.656Z,18.70
2023-05-06T18:37:37.305Z,18.70
2023-05-06T18:40:09.055Z,18.70
2023-05-06T18:42:37.429Z,18.70
2023-05-06T18:45:07.333Z,18.70
2023-05-06T18:47:36.997Z,18.70
2023-05-06T18:50:07.714Z,18.70
2023-05-06T18:52:37.685Z,18.70
2023-05-06T18:55:07.510Z,18.70
2023-05-06T18:57:35.931Z,18.70
2023-05-06T19:00:07.171Z,18.70
2023-05-06T19:02:35.558Z,18.70
2023-05-06T19:05:04.072Z,18.70
2023-05-06T19:07:33.801Z,18.70
2023-05-06T19:10:02.142Z,18.70
2023-05-06T19:12:31.580Z,18.70
2023-05-06T19:15:00.112Z,18.70
2023-05-06T19:17:28.746Z,18.70
2023-05-06T19:19:57.105Z,18.70
2023-05-06T19:22:25.465Z,18.70
2023-05-06T19:24:55.433Z,18.70
2023-05-06T19:27:23.978Z,18.70
2023-05-06T19:29:52.449Z,18.60
2023-05-06T19:32:21.028Z,18.70
2023-05-06T19:34:49.378Z,18.70
2023-05-06T19:37:17.704Z,18.60
2023-05-06T19:39:46.634Z,18.70
2023-05-06T19:42:16.420Z,18.70
2023-05-06T19:44:44.770Z,18.70
2023-05-06T19:47:13.301Z,18.70
2023-05-06T19:49:41.594Z,18.60
2023-05-06T19:52:09.949Z,18.60
2023-05-06T19:54:38.301Z,18.60
2023-05-06T19:57:06.664Z,18.60
2023-05-06T19:59:36.449Z,18.60
2023-05-06T20:02:04.873Z,18.60
2023-05-06T20:04:34.273Z,18.60
2023-05-06T20:07:02.632Z,18.60
2023-05-06T20:09:31.078Z,18.60
2023-05-06T20:11:59.623Z,18.50
2023-05-06T20:14:28.098Z,18.50
2023-05-06T20:16:58.599Z,18.50
2023-05-06T20:19:29.445Z,18.50
2023-05-06T20:21:58.550Z,18.50
2023-05-06T20:24:29.497Z,18.50
2023-05-06T20:26:59.008Z,18.50
2023-05-06T20:29:27.353Z,18.50
2023-05-06T20:31:57.201Z,18.50
2023-05-06T20:34:26.085Z,18.50
2023-05-06T20:36:55.311Z,18.50
2023-05-06T20:39:24.058Z,18.50
2023-05-06T20:41:52.347Z,18.40
2023-05-06T20:44:20.884Z,18.40
2023-05-06T20:46:49.306Z,18.40
2023-05-06T20:49:19.770Z,18.40
2023-05-06T20:51:48.114Z,18.40
2023-05-06T20:54:16.403Z,18.40
2023-05-06T20:56:44.910Z,18.40
2023-05-06T20:59:13.280Z,18.40
2023-05-06T21:01:41.759Z,18.40
2023-05-06T21:04:10.106Z,18.40
2023-05-06T21:06:39.962Z,18.40
2023-05-06T21:09:08.324Z,18.40
2023-05-06T21:11:36.753Z,18.40
2023-05-06T21:14:05.099Z,18.30
2023-05-06T21:16:33.476Z,18.30
2023-05-06T21:19:01.944Z,18.40
2023-05-06T21:21:32.527Z,18.40
2023-05-06T21:24:02.827Z,18.30
2023-05-06T21:26:31.617Z,18.30
2023-05-06T21:29:00.041Z,18.30
2023-05-06T21:31:30.154Z,18.30
2023-05-06T21:34:00.130Z,18.30
2023-05-06T21:36:28.526Z,18.30
2023-05-06T21:39:08.087Z,18.30
2023-05-06T21:41:36.669Z,18.30
2023-05-06T21:44:05.716Z,18.30
2023-05-06T21:46:34.981Z,18.30
2023-05-06T21:49:03.462Z,18.30
2023-05-06T21:51:34.137Z,18.30
2023-05-06T21:54:04.520Z,18.20
2023-05-06T21:56:32.948Z,18.20
2023-05-06T21:59:01.287Z,18.30
2023-05-06T22:01:30.065Z,18.30
2023-05-06T22:03:58.494Z,18.20
2023-05-06T22:06:26.832Z,18.20
2023-05-06T22:08:55.416Z,18.20
2023-05-06T22:11:25.178Z,18.20
2023-05-06T22:13:53.568Z,18.20
2023-05-06T22:16:22.097Z,18.20
2023-05-06T22:18:51.926Z,18.20
2023-05-06T22:21:20.285Z,18.20
2023-05-06T22:23:48.635Z,18.20
2023-05-06T22:26:17.062Z,18.20
2023-05-06T22:28:46.740Z,18.20
2023-05-06T22:31:15.586Z,18.20
2023-05-06T22:33:43.933Z,18.20
2023-05-06T22:36:12.330Z,18.20
2023-05-06T22:38:40.826Z,18.20
2023-05-06T22:41:09.238Z,18.20
2023-05-06T22:43:37.544Z,18.20
2023-05-06T22:46:07.810Z,18.20
2023-05-06T22:48:36.192Z,18.20
2023-05-06T22:51:04.690Z,18.20
2023-05-06T22:53:33.799Z,18.20
2023-05-06T22:56:02.251Z,18.20
2023-05-06T22:58:31.616Z,18.20
2023-05-06T23:01:00.026Z,18.20
2023-05-06T23:03:29.893Z,18.20
2023-05-06T23:05:58.731Z,18.10
2023-05-06T23:08:27.262Z,18.10
2023-05-06T23:10:55.912Z,18.10
2023-05-06T23:13:24.545Z,18.10
2023-05-06T23:15:53.113Z,18.10
2023-05-06T23:18:21.741Z,18.10
2023-05-06T23:20:51.412Z,18.10
2023-05-06T23:23:19.729Z,18.10
2023-05-06T23:25:48.069Z,18.10
2023-05-06T23:28:16.429Z,18.10
2023-05-06T23:30:45.038Z,18.10
2023-05-06T23:33:13.436Z,18.10
2023-05-06T23:35:41.921Z,18.10
2023-05-06T23:38:11.726Z,18.10
2023-05-06T23:40:40.177Z,18.10
2023-05-06T23:43:09.935Z,18.10
2023-05-06T23:45:38.564Z,18.10
2023-05-06T23:48:07.743Z,18.10
2023-05-06T23:50:36.079Z,18.10
2023-05-06T23:53:04.774Z,18.10
2023-05-06T23:55:34.604Z,18.10
2023-05-06T23:58:02.968Z,18.10
